ěÝzenÝ letovÚho provozu ╚eskÚ republiky
OPMET data - Ceska Republika (LK) Aktualizace: 12.07.2024 22:31:41  UTC
SIGMET / AIRMET - NIL
Warning / Vystraha - NIL
AIREP - NIL
REG QNH
REGIONAL QNH FORECAST ISSUED 2024-07-12 21:43
AREA VALID FM/TL QNH/HPA/
LKAA 122200/122300 1006
 
METAR / SPECI
METAR LKBC 122230Z AUTO VRB01KT 9999 FEW038 OVC084 20/18 Q1011=
METAR LKCR 122230Z AUTO VRB01KT 9999 FEW055 SCT071 BKN130 19/17 Q1009=
METAR LKCS 122230Z AUTO 30004KT 260V330 CAVOK 20/19 Q1011=
METAR LKCV 122230Z 26004KT CAVOK 19/18 Q1010 NOSIG RMK BLU BLU=
METAR LKKB 122230Z 18004KT 140V200 9999 -RA FEW044 BKN095 19/18 Q1009 RMK BLU=
METAR LKKU 122200Z VRB01KT 9999 TS FEW013 FEW021CB SCT083 20/19 Q1009=
METAR LKKV 122200Z 15003KT 110V260 9999 SCT024 16/16 Q1011=
METAR LKLN 122230Z AUTO VRB02KT 9999 OVC110 18/17 Q1011=
METAR LKMT 122230Z 21004KT 160V290 CAVOK 20/19 Q1008 TEMPO 4000 SHRA SCT030TCU=
METAR LKNA 122230Z 32005KT 8000 NSC 19/18 Q1010 RMK BLACK=
METAR LKPD 122230Z 18003KT 150V220 CAVOK 20/19 Q1009 RMK BLU=
METAR LKPJ 122230Z AUTO 27003KT 230V290 CAVOK 19/18 Q1009=
METAR LKPR 122230Z 23007KT 9999 FEW025 18/18 Q1010 NOSIG=
METAR LKTB 122230Z VRB01KT CAVOK 19/18 Q1009 NOSIG=
METAR LKTH 122230Z AUTO VRB02KT 9999 FEW003 SCT032 OVC120 17/16 Q1010=
METAR LKVO NIL
TAF
TAF LKBC NIL
TAF LKCR NIL
TAF LKCS 122110Z 1221/1306 CNL=
TAF LKCV 121700Z 1218/1318 24006KT CAVOK      TEMPO 1218/1308 20016KT 5000 SHRA BKN030TCU      PROB40 TEMPO 1218/1221 24018G28KT 3000 TSRA SCT015 BKN025CB      TEMPO 1221/1305 3000 BR BKN003      BECMG 1304/1307 27012KT=
TAF LKKB 121700Z 1218/1318 15006KT CAVOK      TEMPO 1218/1308 15012KT 6000 SHRA SCT020TCU BKN025      TEMPO 1218/1222 26015G25KT 4000 TSRA BKN035CB      TEMPO 1300/1305 2000 BR OVC003      PROB40 TEMPO 1302/1305 26015G25KT 4000 TSRA BKN020CB      PROB30 TEMPO 1310/1318 20008KT 8000 SHRA SCT040TCU=
TAF LKKU NIL
TAF LKKV 121700Z 1218/1318 24008KT 9999 SCT030      TEMPO 1218/1222 26016KT 7000 SHRA SCT025CB BKN030      PROB30 TEMPO 1218/1220 32018G28KT 4000 TSRA BKN025CB      TEMPO 1222/1306 27008KT 6000 SHRA BKN014      PROB40 TEMPO 1222/1304 3000 TSRA BKN010CB BKN016      BECMG 1306/1308 28006KT 9999 SCT010      PROB30 TEMPO 1308/1318 31012KT 7000 SHRA SCT020TCU=
TAF LKLN NIL
TAF LKMT 121700Z 1218/1318 05005KT CAVOK      PROB40 TEMPO 1218/1300 23025G40KT 2000 TSRAGR SCT010 BKN020CB      TEMPO 1300/1303 23008KT 6000 RA SCT020 BKN035      TEMPO 1303/1315 24010KT 9999 BKN040      BECMG 1315/1317 02008KT=
TAF LKNA 121700Z 1218/1318 29008KT CAVOK      TEMPO 1218/1223 30014KT 7000 SHRA BKN025TCU      PROB30 TEMPO 1218/1222 30018G30KT 3000 TSRA BKN020CB      PROB30 1301/1306 3000 MIFG SCT005      PROB40 TEMPO 1304/1309 SHRA BKN015=
TAF LKPD 121700Z 1218/1318 28006KT CAVOK      TEMPO 1218/1318 26012KT 7000 SHRA BKN030TCU      PROB40 TEMPO 1218/1220 27016G30KT 3000 TSRA SCT010 BKN020CB      TEMPO 1220/1307 VRB02KT 2000 MIFG BR BKN003=
TAF LKPJ NIL
TAF LKPR 122000Z 1221/1403 24006KT 9999 SCT035      TEMPO 1221/1306 SHRA BKN025CB      PROB30 TEMPO 1221/1303 26016KT 3000 TSRA BKN014CB      PROB30 TEMPO 1313/1321 SHRA SCT030TCU      BECMG 1321/1323 VRB02KT CAVOK      PROB30 TEMPO 1401/1403 4000 BR NSC=
TAF LKTB 121700Z 1218/1318 15010KT 9999 NSC      TEMPO 1218/1222 15015KT 6000 SHRA BKN020TCU      PROB40 TEMPO 1218/1221 20018G36KT 2000 +TSRA SCT010 BKN020CB      BECMG 1300/1302 23006KT 9999 BKN018      BECMG 1308/1309 32008KT SCT040=
TAF LKTH NIL
TAF LKVO NIL